createdAt,value
2022-12-04T00:02:25.388Z,37.60
2022-12-04T00:04:56.151Z,38.03
2022-12-04T00:07:39.396Z,35.53
2022-12-04T00:10:13.540Z,36.47
2022-12-04T00:12:42.525Z,38.53
2022-12-04T00:15:27.377Z,36.73
2022-12-04T00:17:56.912Z,39.00
2022-12-04T00:20:34.042Z,36.67
2022-12-04T00:23:11.108Z,38.50
2022-12-04T00:25:51.061Z,39.57
2022-12-04T00:28:25.089Z,40.00
2022-12-04T00:30:55.748Z,39.20
2022-12-04T00:33:24.074Z,39.40
2022-12-04T00:35:59.262Z,40.80
2022-12-04T00:38:34.078Z,40.37
2022-12-04T00:41:08.682Z,40.80
2022-12-04T00:43:39.480Z,42.73
2022-12-04T00:46:18.049Z,41.20
2022-12-04T00:48:46.887Z,37.90
2022-12-04T00:51:22.777Z,39.97
2022-12-04T00:53:54.480Z,39.00
2022-12-04T00:56:49.957Z,39.00
2022-12-04T00:59:29.990Z,41.20
2022-12-04T01:02:12.817Z,39.27
2022-12-04T01:04:47.055Z,38.63
2022-12-04T01:07:19.377Z,38.70
2022-12-04T01:09:56.332Z,38.20
2022-12-04T01:12:40.355Z,39.30
2022-12-04T01:15:15.311Z,37.40
2022-12-04T01:17:57.075Z,37.77
2022-12-04T01:20:28.028Z,38.57
2022-12-04T01:22:58.562Z,37.80
2022-12-04T01:25:30.706Z,37.97
2022-12-04T01:28:04.598Z,36.77
2022-12-04T01:30:33.781Z,36.33
2022-12-04T01:33:12.303Z,35.60
2022-12-04T01:35:50.051Z,35.40
2022-12-04T01:38:20.892Z,34.27
2022-12-04T01:40:51.803Z,33.57
2022-12-04T01:43:29.906Z,36.00
2022-12-04T01:46:07.278Z,33.87
2022-12-04T01:48:43.783Z,33.67
2022-12-04T01:51:19.304Z,35.40
2022-12-04T01:53:51.257Z,34.03
2022-12-04T01:59:09.834Z,33.50
2022-12-04T02:01:41.226Z,30.87
2022-12-04T02:04:12.039Z,34.27
2022-12-04T02:09:33.168Z,34.63
2022-12-04T02:12:09.947Z,36.70
2022-12-04T02:15:02.870Z,34.70
2022-12-04T02:17:40.419Z,34.43
2022-12-04T02:20:47.759Z,35.90
2022-12-04T02:23:35.877Z,35.63
2022-12-04T02:26:40.626Z,34.00
2022-12-04T02:29:27.829Z,34.67
2022-12-04T02:32:02.914Z,35.40
2022-12-04T02:34:38.094Z,35.93
2022-12-04T02:37:12.796Z,37.70
2022-12-04T02:39:50.990Z,35.47
2022-12-04T02:42:25.879Z,35.20
2022-12-04T02:45:02.872Z,35.47
2022-12-04T02:47:34.003Z,35.50
2022-12-04T02:50:09.026Z,35.63
2022-12-04T02:52:40.197Z,35.87
2022-12-04T02:55:14.363Z,34.37
2022-12-04T02:57:53.448Z,34.87
2022-12-04T03:00:30.749Z,37.53
2022-12-04T03:03:00.970Z,34.10
2022-12-04T03:05:38.831Z,32.90
2022-12-04T03:08:17.672Z,33.80
2022-12-04T03:10:52.717Z,35.20
2022-12-04T03:13:26.718Z,34.40
2022-12-04T03:16:03.510Z,32.73
2022-12-04T03:18:35.423Z,34.20
2022-12-04T03:21:13.501Z,33.43
2022-12-04T03:23:46.086Z,33.30
2022-12-04T03:26:22.637Z,33.50
2022-12-04T03:28:57.597Z,34.20
2022-12-04T03:31:33.944Z,34.30
2022-12-04T03:34:04.219Z,33.37
2022-12-04T03:36:34.784Z,34.97
2022-12-04T03:39:07.203Z,34.00
2022-12-04T03:41:49.771Z,34.07
2022-12-04T03:44:21.564Z,33.10
2022-12-04T03:46:54.481Z,34.70
2022-12-04T03:49:25.686Z,33.60
2022-12-04T03:51:57.557Z,33.93
2022-12-04T03:54:28.410Z,34.30
2022-12-04T03:57:00.164Z,34.10
2022-12-04T03:59:30.492Z,35.53
2022-12-04T04:02:01.330Z,35.33
2022-12-04T04:04:31.940Z,34.20
2022-12-04T04:07:04.424Z,34.90
2022-12-04T04:09:36.351Z,38.43
2022-12-04T04:12:07.822Z,37.83
2022-12-04T04:14:57.351Z,38.20
2022-12-04T04:17:47.497Z,40.57
2022-12-04T04:20:38.484Z,41.17
2022-12-04T04:23:25.789Z,42.07
2022-12-04T04:25:54.378Z,39.63
2022-12-04T04:28:33.347Z,40.47
2022-12-04T04:31:08.082Z,41.77
2022-12-04T04:33:44.711Z,44.00
2022-12-04T04:36:17.513Z,39.97
2022-12-04T04:38:49.300Z,39.77
2022-12-04T04:41:22.026Z,42.43
2022-12-04T04:43:55.123Z,41.03
2022-12-04T04:46:28.802Z,41.43
2022-12-04T04:49:01.611Z,41.73
2022-12-04T04:51:30.385Z,42.00
2022-12-04T04:54:00.632Z,40.17
2022-12-04T04:56:28.827Z,40.43
2022-12-04T04:58:56.938Z,42.47
2022-12-04T05:01:27.082Z,41.23
2022-12-04T05:03:55.275Z,39.87
2022-12-04T05:06:24.675Z,39.97
2022-12-04T05:08:53.067Z,41.10
2022-12-04T05:11:21.132Z,42.13
2022-12-04T05:13:49.190Z,39.37
2022-12-04T05:16:17.913Z,39.00
2022-12-04T05:19:06.697Z,40.40
2022-12-04T05:21:35.251Z,40.20
2022-12-04T05:24:03.401Z,38.70
2022-12-04T05:26:31.574Z,39.53
2022-12-04T05:28:59.654Z,38.70
2022-12-04T05:31:27.875Z,40.10
2022-12-04T05:33:56.069Z,40.73
2022-12-04T05:36:24.061Z,39.97
2022-12-04T05:38:53.501Z,38.90
2022-12-04T05:41:21.752Z,41.23
2022-12-04T05:43:50.153Z,38.93
2022-12-04T05:46:18.229Z,41.30
2022-12-04T05:48:46.242Z,38.47
2022-12-04T05:51:14.331Z,40.17
2022-12-04T05:53:42.442Z,39.73
2022-12-04T05:56:11.898Z,40.83
2022-12-04T05:58:40.131Z,40.50
2022-12-04T06:01:13.219Z,39.07
2022-12-04T06:03:41.326Z,39.43
2022-12-04T06:06:17.616Z,39.43
2022-12-04T06:08:49.441Z,42.10
2022-12-04T06:11:21.347Z,37.87
2022-12-04T06:13:49.580Z,39.40
2022-12-04T06:16:19.752Z,39.73
2022-12-04T06:18:50.801Z,40.57
2022-12-04T06:21:19.286Z,37.17
2022-12-04T06:23:47.411Z,38.50
2022-12-04T06:26:16.079Z,40.00
2022-12-04T06:28:45.727Z,39.43
2022-12-04T06:31:15.298Z,40.90
2022-12-04T06:33:43.837Z,38.60
2022-12-04T06:36:13.770Z,38.20
2022-12-04T06:38:42.407Z,39.30
2022-12-04T06:41:12.256Z,38.53
2022-12-04T06:43:41.071Z,37.93
2022-12-04T06:46:13.699Z,37.83
2022-12-04T06:48:42.198Z,38.70
2022-12-04T06:51:13.847Z,36.03
2022-12-04T06:53:42.621Z,37.37
2022-12-04T06:56:13.082Z,35.53
2022-12-04T06:58:41.816Z,36.33
2022-12-04T07:01:13.085Z,37.87
2022-12-04T07:03:46.233Z,37.87
2022-12-04T07:06:20.367Z,36.00
2022-12-04T07:08:51.966Z,35.57
2022-12-04T07:11:29.565Z,35.00
2022-12-04T07:14:01.054Z,35.17
2022-12-04T07:16:59.463Z,35.57
2022-12-04T07:19:36.420Z,35.43
2022-12-04T07:22:10.097Z,35.47
2022-12-04T07:24:43.618Z,35.53
2022-12-04T07:27:11.918Z,34.77
2022-12-04T07:29:41.061Z,34.10
2022-12-04T07:32:21.698Z,35.63
2022-12-04T07:34:55.056Z,35.40
2022-12-04T07:37:26.964Z,31.93
2022-12-04T07:39:56.730Z,32.10
2022-12-04T07:42:28.344Z,33.07
2022-12-04T07:44:57.111Z,32.97
2022-12-04T07:47:31.665Z,31.70
2022-12-04T07:50:01.087Z,30.83
2022-12-04T07:52:42.846Z,31.57
2022-12-04T07:55:23.110Z,33.23
2022-12-04T07:57:57.589Z,31.07
2022-12-04T08:00:25.929Z,32.20
2022-12-04T08:02:57.930Z,31.90
2022-12-04T08:05:27.800Z,31.30
2022-12-04T08:07:58.166Z,30.20
2022-12-04T08:10:29.397Z,31.10
2022-12-04T08:12:58.806Z,32.57
2022-12-04T08:15:38.988Z,32.43
2022-12-04T08:18:15.552Z,32.30
2022-12-04T08:20:53.177Z,30.73
2022-12-04T08:23:22.009Z,30.83
2022-12-04T08:25:50.674Z,30.70
2022-12-04T08:28:21.196Z,30.33
2022-12-04T08:30:51.051Z,31.03
2022-12-04T08:33:25.491Z,29.90
2022-12-04T08:36:03.040Z,31.23
2022-12-04T08:38:39.257Z,30.70
2022-12-04T08:41:11.722Z,30.23
2022-12-04T08:43:51.238Z,30.23
2022-12-04T08:46:22.738Z,30.47
2022-12-04T08:48:59.936Z,30.00
2022-12-04T08:51:29.431Z,30.53
2022-12-04T08:54:05.316Z,28.53
2022-12-04T08:56:36.990Z,31.57
2022-12-04T08:59:10.592Z,31.00
2022-12-04T09:02:08.721Z,29.80
2022-12-04T09:04:41.304Z,29.60
2022-12-04T09:07:18.351Z,32.07
2022-12-04T09:09:49.337Z,29.90
2022-12-04T09:12:25.982Z,30.80
2022-12-04T09:15:03.368Z,30.77
2022-12-04T09:17:44.516Z,30.83
2022-12-04T09:20:19.464Z,30.47
2022-12-04T09:23:03.815Z,34.00
2022-12-04T09:25:49.700Z,29.20
2022-12-04T09:28:31.498Z,31.60
2022-12-04T09:31:04.749Z,32.97
2022-12-04T09:33:49.229Z,30.83
2022-12-04T09:36:41.072Z,30.57
2022-12-04T09:39:23.718Z,32.00
2022-12-04T09:42:37.127Z,32.47
2022-12-04T09:45:33.382Z,32.20
2022-12-04T09:48:06.442Z,32.80
2022-12-04T09:50:50.369Z,30.70
2022-12-04T09:53:44.247Z,32.60
2022-12-04T09:56:27.000Z,32.60
2022-12-04T09:59:18.619Z,32.40
2022-12-04T10:02:00.353Z,35.20
2022-12-04T10:04:33.189Z,32.37
2022-12-04T10:07:13.026Z,32.87
2022-12-04T10:10:02.894Z,34.07
2022-12-04T10:12:41.537Z,34.17
2022-12-04T10:15:29.401Z,33.73
2022-12-04T10:18:22.533Z,32.77
2022-12-04T10:21:24.998Z,33.93
2022-12-04T10:24:30.885Z,33.60
2022-12-04T10:27:10.689Z,31.17
2022-12-04T10:29:42.817Z,33.40
2022-12-04T10:32:19.967Z,32.77
2022-12-04T10:35:00.039Z,31.07
2022-12-04T10:37:46.674Z,29.90
2022-12-04T10:40:21.023Z,31.03
2022-12-04T10:43:13.391Z,27.73
2022-12-04T10:45:56.749Z,28.63
2022-12-04T10:48:35.943Z,24.97
2022-12-04T10:51:09.644Z,24.50
2022-12-04T10:53:38.385Z,24.53
2022-12-04T10:56:39.043Z,25.97
2022-12-04T10:59:21.494Z,23.37
2022-12-04T11:01:54.621Z,23.23
2022-12-04T11:04:38.342Z,22.60
2022-12-04T11:07:10.455Z,23.30
2022-12-04T11:09:49.017Z,21.47
2022-12-04T11:12:32.815Z,22.07
2022-12-04T11:15:12.558Z,20.67
2022-12-04T11:17:52.552Z,19.23
2022-12-04T11:20:34.121Z,20.43
2022-12-04T11:23:20.716Z,17.50
2022-12-04T11:26:06.186Z,17.87
2022-12-04T11:28:44.249Z,18.30
2022-12-04T11:31:22.075Z,18.57
2022-12-04T11:34:01.822Z,18.50
2022-12-04T11:36:52.299Z,18.93
2022-12-04T11:39:38.133Z,19.57
2022-12-04T11:42:33.138Z,17.77
2022-12-04T11:45:25.722Z,16.40
2022-12-04T11:48:11.955Z,18.87
2022-12-04T11:50:52.899Z,17.77
2022-12-04T11:53:49.975Z,18.77
2022-12-04T12:00:23.166Z,17.47
2022-12-04T12:03:12.093Z,17.60
2022-12-04T12:06:19.732Z,17.33
2022-12-04T12:09:08.618Z,19.07
2022-12-04T12:11:50.852Z,17.10
2022-12-04T12:14:30.116Z,17.93
2022-12-04T12:17:17.251Z,17.57
2022-12-04T12:20:06.901Z,18.97
2022-12-04T12:22:53.864Z,18.40
2022-12-04T12:25:39.419Z,17.20
2022-12-04T12:28:19.676Z,18.33
2022-12-04T12:31:06.156Z,17.80
2022-12-04T12:33:43.963Z,17.10
2022-12-04T12:36:24.791Z,16.63
2022-12-04T12:38:59.002Z,18.10
2022-12-04T12:41:41.606Z,17.80
2022-12-04T12:44:20.626Z,17.33
2022-12-04T12:47:05.480Z,18.77
2022-12-04T12:49:55.156Z,18.77
2022-12-04T12:52:42.937Z,19.50
2022-12-04T12:55:26.511Z,18.90
2022-12-04T12:58:03.879Z,19.30
2022-12-04T13:00:51.466Z,18.03
2022-12-04T13:03:48.083Z,18.97
2022-12-04T13:06:30.155Z,18.93
2022-12-04T13:09:12.462Z,19.90
2022-12-04T13:11:53.694Z,19.90
2022-12-04T13:14:28.689Z,19.17
2022-12-04T13:17:02.679Z,19.53
2022-12-04T13:19:39.936Z,17.90
2022-12-04T13:22:20.379Z,18.40
2022-12-04T13:25:17.655Z,18.87
2022-12-04T13:27:58.449Z,17.43
2022-12-04T13:30:33.676Z,17.50
2022-12-04T13:33:39.997Z,18.10
2022-12-04T13:36:25.100Z,19.50
2022-12-04T13:39:08.437Z,18.10
2022-12-04T13:41:39.574Z,20.97
2022-12-04T13:44:23.716Z,19.40
2022-12-04T13:46:59.774Z,18.23
2022-12-04T13:49:34.079Z,17.90
2022-12-04T13:52:11.273Z,21.93
2022-12-04T13:54:49.092Z,20.20
2022-12-04T13:57:27.023Z,21.50
2022-12-04T14:00:28.431Z,19.50
2022-12-04T14:03:00.034Z,19.33
2022-12-04T14:05:39.120Z,21.17
2022-12-04T14:08:28.568Z,20.90
2022-12-04T14:11:11.027Z,20.20
2022-12-04T14:13:50.545Z,20.37
2022-12-04T14:16:27.262Z,20.60
2022-12-04T14:19:02.215Z,19.97
2022-12-04T14:21:55.865Z,19.67
2022-12-04T14:24:41.958Z,18.10
2022-12-04T14:27:45.719Z,21.10
2022-12-04T14:30:34.425Z,20.57
2022-12-04T14:33:13.214Z,19.47
2022-12-04T14:36:01.427Z,21.10
2022-12-04T14:38:36.086Z,20.30
2022-12-04T14:41:09.050Z,19.27
2022-12-04T14:43:48.621Z,19.87
2022-12-04T14:46:26.522Z,20.70
2022-12-04T14:49:02.981Z,19.17
2022-12-04T14:51:40.445Z,18.40
2022-12-04T14:54:19.144Z,18.00
2022-12-04T14:57:06.166Z,18.60
2022-12-04T14:59:51.109Z,19.23
2022-12-04T15:02:36.356Z,19.70
2022-12-04T15:05:23.097Z,18.80
2022-12-04T15:08:00.075Z,18.17
2022-12-04T15:10:55.684Z,19.70
2022-12-04T15:13:31.688Z,17.73
2022-12-04T15:16:27.627Z,17.10
2022-12-04T15:19:16.527Z,17.70
2022-12-04T15:22:00.365Z,18.10
2022-12-04T15:24:32.924Z,18.97
2022-12-04T15:27:10.542Z,18.73
2022-12-04T15:29:59.951Z,18.57
2022-12-04T15:32:38.835Z,20.83
2022-12-04T15:35:36.997Z,19.27
2022-12-04T15:38:35.950Z,21.30
2022-12-04T15:41:06.220Z,23.83
2022-12-04T15:43:45.260Z,22.70
2022-12-04T15:46:31.329Z,20.53
2022-12-04T15:49:29.429Z,22.10
2022-12-04T15:52:26.588Z,19.70
2022-12-04T15:55:16.600Z,20.57
2022-12-04T15:57:58.994Z,20.23
2022-12-04T16:00:45.190Z,21.10
2022-12-04T16:03:26.490Z,18.07
2022-12-04T16:06:25.967Z,19.60
2022-12-04T16:09:28.212Z,19.77
2022-12-04T16:12:26.513Z,19.60
2022-12-04T16:15:06.531Z,19.03
2022-12-04T16:17:45.670Z,18.87
2022-12-04T16:20:27.014Z,18.27
2022-12-04T16:23:01.026Z,17.27
2022-12-04T16:25:56.407Z,15.70
2022-12-04T16:28:39.366Z,16.60
2022-12-04T16:31:18.451Z,18.13
2022-12-04T16:34:04.510Z,18.03
2022-12-04T16:36:36.439Z,16.87
2022-12-04T16:39:10.168Z,17.13
2022-12-04T16:41:44.468Z,18.10
2022-12-04T16:44:18.564Z,18.17
2022-12-04T16:46:58.446Z,17.43
2022-12-04T16:49:54.321Z,17.77
2022-12-04T16:52:33.889Z,18.47
2022-12-04T16:55:32.526Z,18.50
2022-12-04T16:58:09.533Z,18.43
2022-12-04T17:00:47.138Z,18.20
2022-12-04T17:03:35.565Z,19.57
2022-12-04T17:06:07.085Z,18.77
2022-12-04T17:08:41.283Z,18.90
2022-12-04T17:11:12.942Z,19.93
2022-12-04T17:13:59.311Z,19.80
2022-12-04T17:16:29.647Z,19.77
2022-12-04T17:19:25.047Z,20.87
2022-12-04T17:22:03.475Z,21.47
2022-12-04T17:24:55.623Z,22.23
2022-12-04T17:27:30.723Z,22.93
2022-12-04T17:30:05.754Z,23.03
2022-12-04T17:32:37.912Z,23.73
2022-12-04T17:35:20.227Z,22.30
2022-12-04T17:37:57.417Z,23.20
2022-12-04T17:40:33.458Z,21.07
2022-12-04T17:43:07.491Z,22.30
2022-12-04T17:45:57.925Z,24.30
2022-12-04T17:48:34.354Z,24.00
2022-12-04T17:51:11.082Z,24.20
2022-12-04T17:53:44.689Z,26.53
2022-12-04T17:56:25.312Z,23.13
2022-12-04T17:58:58.419Z,23.73
2022-12-04T18:01:38.511Z,22.80
2022-12-04T18:04:15.260Z,25.40
2022-12-04T18:06:51.795Z,23.80
2022-12-04T18:09:22.330Z,25.07
2022-12-04T18:11:57.006Z,24.80
2022-12-04T18:14:28.739Z,24.20
2022-12-04T18:17:07.748Z,22.20
2022-12-04T18:19:47.017Z,23.80
2022-12-04T18:22:24.282Z,23.17
2022-12-04T18:24:59.711Z,25.23
2022-12-04T18:27:42.021Z,25.63
2022-12-04T18:30:41.215Z,22.87
2022-12-04T18:33:21.754Z,22.97
2022-12-04T18:35:59.208Z,25.43
2022-12-04T18:38:36.946Z,22.67
2022-12-04T18:41:13.666Z,22.67
2022-12-04T18:43:52.982Z,24.30
2022-12-04T18:46:34.732Z,24.10
2022-12-04T18:49:12.487Z,24.40
2022-12-04T18:52:06.319Z,24.90
2022-12-04T18:54:40.085Z,23.70
2022-12-04T18:57:11.822Z,24.63
2022-12-04T18:59:43.969Z,24.30
2022-12-04T19:02:26.808Z,23.60
2022-12-04T19:05:25.102Z,24.57
2022-12-04T19:07:58.651Z,22.43
2022-12-04T19:10:51.427Z,22.30
2022-12-04T19:13:30.386Z,22.10
2022-12-04T19:16:21.434Z,21.20
2022-12-04T19:19:31.356Z,20.00
2022-12-04T19:22:39.308Z,21.87
2022-12-04T19:25:25.836Z,21.00
2022-12-04T19:28:06.813Z,20.43
2022-12-04T19:30:43.884Z,21.37
2022-12-04T19:33:20.000Z,20.23
2022-12-04T19:36:18.853Z,20.67
2022-12-04T19:39:14.112Z,21.93
2022-12-04T19:41:49.149Z,20.40
2022-12-04T19:44:47.793Z,21.23
2022-12-04T19:47:36.031Z,20.97
2022-12-04T19:50:22.992Z,20.40
2022-12-04T19:53:02.079Z,20.40
2022-12-04T19:55:57.371Z,19.43
2022-12-04T19:58:44.278Z,21.77
2022-12-04T20:01:23.767Z,20.93
2022-12-04T20:03:59.295Z,20.20
2022-12-04T20:06:45.003Z,19.77
2022-12-04T20:09:25.540Z,19.53
2022-12-04T20:12:10.931Z,20.70
2022-12-04T20:15:00.450Z,19.40
2022-12-04T20:17:36.563Z,17.80
2022-12-04T20:20:09.215Z,21.10
2022-12-04T20:22:42.089Z,19.00
2022-12-04T20:25:15.212Z,19.67
2022-12-04T20:28:14.340Z,19.67
2022-12-04T20:30:59.216Z,19.13
2022-12-04T20:33:43.688Z,18.53
2022-12-04T20:36:19.273Z,18.60
2022-12-04T20:38:54.834Z,19.50
2022-12-04T20:41:25.927Z,19.23
2022-12-04T20:44:30.352Z,19.93
2022-12-04T20:47:11.710Z,18.50
2022-12-04T20:49:45.955Z,19.13
2022-12-04T20:52:18.822Z,18.33
2022-12-04T20:55:03.096Z,18.20
2022-12-04T20:57:44.533Z,20.20
2022-12-04T21:00:25.159Z,19.10
2022-12-04T21:02:55.753Z,20.33
2022-12-04T21:05:27.545Z,19.93
2022-12-04T21:07:57.751Z,20.63
2022-12-04T21:10:30.245Z,21.93
2022-12-04T21:13:15.912Z,19.90
2022-12-04T21:16:04.219Z,21.17
2022-12-04T21:18:53.825Z,19.00
2022-12-04T21:21:38.565Z,20.30
2022-12-04T21:24:20.903Z,19.30
2022-12-04T21:26:58.112Z,18.97
2022-12-04T21:29:38.710Z,19.57
2022-12-04T21:32:15.575Z,18.90
2022-12-04T21:34:46.983Z,19.17
2022-12-04T21:37:22.638Z,18.73
2022-12-04T21:39:53.677Z,18.90
2022-12-04T21:42:38.496Z,17.43
2022-12-04T21:45:09.560Z,18.17
2022-12-04T21:47:41.743Z,17.87
2022-12-04T21:50:11.255Z,18.57
2022-12-04T21:52:48.396Z,16.83
2022-12-04T21:55:25.460Z,16.90
2022-12-04T21:57:55.016Z,17.50
2022-12-04T22:00:31.938Z,15.90
2022-12-04T22:03:08.890Z,15.70
2022-12-04T22:05:40.884Z,14.27
2022-12-04T22:08:14.816Z,14.60
2022-12-04T22:10:54.403Z,15.47
2022-12-04T22:13:25.152Z,14.23
2022-12-04T22:15:54.775Z,14.37
2022-12-04T22:18:39.331Z,14.97
2022-12-04T22:21:09.023Z,15.60
2022-12-04T22:23:47.448Z,14.40
2022-12-04T22:26:20.378Z,15.77
2022-12-04T22:31:32.028Z,14.90
2022-12-04T22:34:03.812Z,16.43
2022-12-04T22:36:33.695Z,14.57
2022-12-04T22:39:11.563Z,16.30
2022-12-04T22:41:40.278Z,14.63
2022-12-04T22:44:08.528Z,15.33
2022-12-04T22:46:37.266Z,17.10
2022-12-04T22:49:09.580Z,15.20
2022-12-04T22:54:40.910Z,15.47
2022-12-04T22:57:10.332Z,16.20
2022-12-04T22:59:41.347Z,15.90
2022-12-04T23:02:12.135Z,17.00
2022-12-04T23:04:53.392Z,16.10
2022-12-04T23:07:27.847Z,16.43
2022-12-04T23:09:58.751Z,16.27
2022-12-04T23:12:33.126Z,16.83
2022-12-04T23:15:01.932Z,14.93
2022-12-04T23:17:30.242Z,15.30
2022-12-04T23:20:04.486Z,15.63
2022-12-04T23:22:41.815Z,15.00
2022-12-04T23:25:11.988Z,14.57
2022-12-04T23:27:43.117Z,15.50
2022-12-04T23:30:11.654Z,15.70
2022-12-04T23:32:43.465Z,14.67
2022-12-04T23:35:20.896Z,14.67
2022-12-04T23:37:51.121Z,13.70
2022-12-04T23:40:20.654Z,14.03
2022-12-04T23:43:04.825Z,12.87
2022-12-04T23:45:41.446Z,13.23
2022-12-04T23:48:11.642Z,14.50
2022-12-04T23:50:44.552Z,13.37
2022-12-04T23:53:15.430Z,13.20
2022-12-04T23:55:49.096Z,13.30
2022-12-04T23:58:18.693Z,14.20
